Time;durP1;ratioP1;P1;durP2;ratioP2;P2;SDS_P1;SDS_P2;PMS_P1;PMS_P2;Temp;Humidity;BMP_temperature;BMP_pressure;BME280_temperature;BME280_humidity;BME280_pressure;Samples;Min_cycle;Max_cycle;Signal;HPM_P1;HPM_P2
2022/04/09 00:01:25;;;;;;;4.40;2.70;;;;;;;3.18;72.24;98816.94;4993522;28;20030;-66
2022/04/09 00:03:51;;;;;;;4.73;2.67;;;;;;;3.17;72.54;98817.88;4992464;28;20257;-67
2022/04/09 00:06:17;;;;;;;6.33;2.63;;;;;;;3.13;72.47;98813.13;4992019;28;20290;-66
2022/04/09 00:08:43;;;;;;;3.63;2.60;;;;;;;3.09;72.72;98820.50;4992834;28;20292;-68
2022/04/09 00:11:13;;;;;;;9.33;2.33;;;;;;;3.08;72.82;98824.94;4992505;28;20043;-70
2022/04/09 00:13:41;;;;;;;5.00;2.73;;;;;;;3.05;73.02;98824.44;4961207;28;20040;-67
2022/04/09 00:16:07;;;;;;;6.77;2.23;;;;;;;3.01;72.88;98810.00;4992868;28;20305;-67
2022/04/09 00:18:32;;;;;;;4.33;2.20;;;;;;;3.02;73.46;98809.00;4992974;28;20085;-68
2022/04/09 00:20:58;;;;;;;6.33;2.43;;;;;;;3.06;73.93;98815.59;4992022;28;20062;-68
2022/04/09 00:23:24;;;;;;;3.83;2.63;;;;;;;3.04;73.73;98823.63;4992384;28;20486;-68
2022/04/09 00:25:50;;;;;;;6.83;2.50;;;;;;;2.98;74.27;98815.56;4994091;28;20976;-69
2022/04/09 00:28:15;;;;;;;5.00;2.10;;;;;;;2.85;74.30;98815.19;4995901;28;20038;-68
2022/04/09 00:30:41;;;;;;;2.83;1.90;;;;;;;2.86;74.94;98815.03;4978612;28;20276;-67
2022/04/09 00:33:07;;;;;;;2.60;1.70;;;;;;;2.84;75.01;98818.81;4996795;28;20084;-67
2022/04/09 00:35:34;;;;;;;6.97;2.53;;;;;;;2.76;75.45;98822.25;4995825;28;20421;-68
2022/04/09 00:37:59;;;;;;;2.97;2.23;;;;;;;2.70;75.64;98815.84;4995892;28;20274;-68
2022/04/09 00:40:26;;;;;;;2.90;2.00;;;;;;;2.74;75.34;98826.84;4995554;28;20506;-69
2022/04/09 00:42:52;;;;;;;4.53;1.80;;;;;;;2.73;76.04;98826.03;4995723;28;20379;-67
2022/04/09 00:45:23;;;;;;;2.27;2.07;;;;;;;2.71;76.23;98827.16;4996200;28;20301;-67
2022/04/09 00:47:49;;;;;;;3.37;2.67;;;;;;;2.76;76.10;98828.34;4997312;28;20347;-68
2022/04/09 00:50:15;;;;;;;3.33;1.80;;;;;;;2.72;76.06;98834.06;4995725;28;20270;-68
2022/04/09 00:52:46;;;;;;;4.20;1.87;;;;;;;2.71;76.23;98828.00;4995706;28;20504;-67
2022/04/09 00:55:13;;;;;;;3.93;2.00;;;;;;;2.68;76.75;98828.31;4995505;28;20266;-68
2022/04/09 00:57:42;;;;;;;9.20;2.07;;;;;;;2.68;76.78;98838.81;4995567;28;20314;-66
2022/04/09 01:00:09;;;;;;;3.50;1.60;;;;;;;2.68;76.64;98828.31;4995480;28;20273;-68
2022/04/09 01:02:45;;;;;;;2.13;1.77;;;;;;;2.64;76.92;98827.00;4997438;28;20129;-70
2022/04/09 01:05:12;;;;;;;1.70;1.60;;;;;;;2.62;77.03;98823.69;4995476;28;20282;-68
2022/04/09 01:07:38;;;;;;;2.27;1.97;;;;;;;2.63;77.31;98835.84;4994995;28;20297;-69
2022/04/09 01:10:06;;;;;;;2.37;2.17;;;;;;;2.58;77.30;98827.59;4978109;28;20772;-70
2022/04/09 01:12:34;;;;;;;2.70;1.90;;;;;;;2.65;77.95;98846.22;4995303;28;20265;-67
2022/04/09 01:15:01;;;;;;;3.87;2.40;;;;;;;2.66;77.43;98840.78;4995152;28;20273;-67
2022/04/09 01:17:29;;;;;;;3.13;1.98;;;;;;;2.60;77.74;98844.06;4996352;28;20324;-68
2022/04/09 01:19:54;;;;;;;6.20;2.20;;;;;;;2.42;77.77;98820.50;4995714;28;20046;-69
2022/04/09 01:22:20;;;;;;;3.43;1.97;;;;;;;2.59;77.59;98841.56;4995028;28;20356;-67
2022/04/09 01:24:45;;;;;;;5.70;2.57;;;;;;;2.52;78.11;98845.81;4994993;28;20049;-69
2022/04/09 01:27:11;;;;;;;3.50;2.23;;;;;;;2.48;78.10;98842.69;4994918;28;20053;-69
2022/04/09 01:29:37;;;;;;;3.37;2.53;;;;;;;2.46;78.26;98847.28;4977325;28;20045;-68
2022/04/09 01:32:02;;;;;;;2.93;2.20;;;;;;;2.46;78.00;98849.91;4995400;28;20038;-67
2022/04/09 01:34:28;;;;;;;4.37;2.20;;;;;;;2.50;77.38;98851.22;4995745;28;20125;-70
2022/04/09 01:36:56;;;;;;;3.60;3.03;;;;;;;2.50;77.70;98851.22;4993834;28;20049;-69
2022/04/09 01:39:22;;;;;;;2.83;2.30;;;;;;;2.41;78.08;98858.25;4977294;28;20269;-68
2022/04/09 01:41:47;;;;;;;3.53;2.03;;;;;;;2.39;77.87;98854.16;4994623;28;20616;-69
2022/04/09 01:44:14;;;;;;;4.57;2.10;;;;;;;2.35;77.92;98852.81;4994356;28;20376;-70
2022/04/09 01:46:44;;;;;;;4.53;2.73;;;;;;;2.34;78.04;98864.31;4994816;28;20116;-68
2022/04/09 01:49:11;;;;;;;3.37;1.93;;;;;;;2.31;78.19;98864.59;4995807;28;20274;-68
2022/04/09 01:51:37;;;;;;;5.40;2.10;;;;;;;2.30;77.31;98866.41;4994802;28;20274;-65
2022/04/09 01:54:02;;;;;;;13.30;2.30;;;;;;;2.21;77.63;98851.56;4994577;28;20288;-65
2022/04/09 01:56:28;;;;;;;8.17;2.70;;;;;;;2.28;77.78;98857.84;4994328;28;20038;-67
2022/04/09 01:58:54;;;;;;;4.40;2.00;;;;;;;2.28;77.42;98867.53;4994086;28;20116;-68
2022/04/09 02:01:19;;;;;;;4.20;2.20;;;;;;;2.21;77.53;98856.00;4994385;28;20042;-66
2022/04/09 02:03:45;;;;;;;3.40;2.30;;;;;;;2.20;77.36;98864.88;4996824;28;20129;-68
2022/04/09 02:06:11;;;;;;;5.67;2.70;;;;;;;2.15;77.75;98855.66;4994398;28;20041;-68
2022/04/09 02:08:37;;;;;;;5.10;2.27;;;;;;;2.07;77.09;98839.88;4994274;28;20042;-68
2022/04/09 02:11:02;;;;;;;2.77;1.83;;;;;;;2.13;77.26;98849.75;4994155;28;20266;-69
2022/04/09 02:13:28;;;;;;;2.47;2.20;;;;;;;2.08;77.28;98849.38;4994302;28;20038;-67
2022/04/09 02:15:53;;;;;;;8.90;2.30;;;;;;;1.92;77.47;98830.91;4994290;28;20042;-67
2022/04/09 02:18:19;;;;;;;5.27;2.37;;;;;;;1.99;77.26;98850.28;4978185;28;20441;-68
2022/04/09 02:20:44;;;;;;;4.20;2.20;;;;;;;1.95;77.42;98848.97;4994145;28;20164;-68
2022/04/09 02:23:10;;;;;;;3.37;2.00;;;;;;;1.90;77.52;98853.84;4993927;28;20457;-67
2022/04/09 02:25:35;;;;;;;4.93;2.47;;;;;;;1.96;77.42;98870.78;4976269;28;20046;-69
2022/04/09 02:28:03;;;;;;;8.03;3.03;;;;;;;1.97;77.16;98860.13;4993805;28;20109;-68
2022/04/09 02:30:29;;;;;;;4.63;2.27;;;;;;;1.94;77.26;98859.63;4993889;28;20026;-67
2022/04/09 02:32:55;;;;;;;4.33;1.90;;;;;;;1.90;77.04;98859.09;4995037;28;20280;-67
2022/04/09 02:35:26;;;;;;;2.20;1.73;;;;;;;1.90;77.39;98868.78;4994118;28;20041;-68
2022/04/09 02:37:53;;;;;;;7.17;2.27;;;;;;;1.81;77.10;98860.03;4995392;28;20489;-66
2022/04/09 02:40:19;;;;;;;4.10;2.23;;;;;;;1.78;77.17;98865.59;4998217;28;20273;-68
2022/04/09 02:42:46;;;;;;;6.40;2.67;;;;;;;1.80;77.22;98874.13;4993635;28;20042;-67
2022/04/09 02:45:13;;;;;;;7.70;2.13;;;;;;;1.75;77.66;98871.16;4993256;28;20116;-68
2022/04/09 02:47:39;;;;;;;4.60;2.07;;;;;;;1.72;77.24;98871.44;4993670;28;20313;-68
2022/04/09 02:50:06;;;;;;;5.03;2.20;;;;;;;1.68;77.94;98870.09;4960660;28;20284;-67
2022/04/09 02:52:34;;;;;;;6.67;1.90;;;;;;;1.50;77.56;98863.06;4993326;28;20297;-67
2022/04/09 02:55:00;;;;;;;3.23;1.93;;;;;;;1.62;77.81;98881.19;4993575;28;20631;-70
2022/04/09 02:57:26;;;;;;;6.40;2.27;;;;;;;1.65;77.54;98871.22;4993401;28;20281;-68
2022/04/09 02:59:51;;;;;;;2.60;2.00;;;;;;;1.66;77.34;98875.47;4975938;28;20320;-67
2022/04/09 03:02:16;;;;;;;3.53;1.83;;;;;;;1.64;77.49;98877.44;4993245;28;20035;-66
2022/04/09 03:04:43;;;;;;;2.33;1.80;;;;;;;1.65;77.49;98881.72;4994674;28;20121;-65
2022/04/09 03:07:09;;;;;;;6.90;2.40;;;;;;;1.68;77.39;98873.53;4993064;28;20034;-68
2022/04/09 03:09:35;;;;;;;8.23;2.40;;;;;;;1.67;77.24;98879.75;4992805;28;20261;-66
2022/04/09 03:12:00;;;;;;;7.37;2.03;;;;;;;1.65;77.28;98875.63;4993270;28;20038;-66
2022/04/09 03:14:26;;;;;;;3.37;1.73;;;;;;;1.63;77.17;98874.97;4993322;28;20035;-67
2022/04/09 03:16:51;;;;;;;4.77;2.30;;;;;;;1.64;76.92;98874.00;4993038;28;20497;-68
2022/04/09 03:19:17;;;;;;;3.50;2.30;;;;;;;1.64;77.07;98887.13;4994072;28;20062;-67
2022/04/09 03:21:42;;;;;;;3.17;1.83;;;;;;;1.63;77.33;98890.72;4993078;28;20045;-67
2022/04/09 03:24:08;;;;;;;4.37;2.13;;;;;;;1.50;77.04;98873.56;4992863;28;20132;-68
2022/04/09 03:26:33;;;;;;;8.23;2.50;;;;;;;1.53;77.11;98881.13;4992763;28;20034;-67
2022/04/09 03:28:59;;;;;;;3.67;1.77;;;;;;;1.62;76.74;98891.69;4992637;28;20522;-69
2022/04/09 03:31:25;;;;;;;3.40;1.80;;;;;;;1.66;76.83;98898.28;4992763;28;20129;-69
2022/04/09 03:33:52;;;;;;;4.07;2.00;;;;;;;1.67;76.30;98899.94;4977046;28;20042;-67
2022/04/09 03:36:18;;;;;;;6.73;2.23;;;;;;;1.61;76.86;98897.91;4992850;28;20034;-67
2022/04/09 03:38:44;;;;;;;4.07;2.10;;;;;;;1.59;76.77;98894.63;4992951;28;20274;-66
2022/04/09 03:41:09;;;;;;;7.17;2.33;;;;;;;1.60;76.32;98906.75;4993666;28;20281;-67
2022/04/09 03:43:36;;;;;;;3.87;1.80;;;;;;;1.58;76.47;98906.91;4993673;28;20038;-67
2022/04/09 03:46:03;;;;;;;3.70;2.23;;;;;;;1.58;76.15;98906.91;4993768;28;20042;-67
2022/04/09 03:48:28;;;;;;;4.40;2.93;;;;;;;1.53;76.10;98902.13;4993658;28;20262;-66
2022/04/09 03:50:54;;;;;;;5.77;2.50;;;;;;;1.40;76.06;98888.53;4994096;28;20613;-66
2022/04/09 03:53:22;;;;;;;4.63;2.63;;;;;;;1.48;77.08;98907.00;4992706;28;20034;-68
2022/04/09 03:55:48;;;;;;;2.95;1.95;;;;;;;1.20;76.86;98872.16;4975073;28;20475;-67
2022/04/09 03:58:18;;;;;;;5.37;2.27;;;;;;;1.51;76.87;98922.44;4992670;28;20088;-68
2022/04/09 04:00:43;;;;;;;4.20;2.33;;;;;;;1.51;76.90;98922.44;4994266;28;20273;-67
2022/04/09 04:03:10;;;;;;;5.17;2.70;;;;;;;1.57;76.53;98928.06;4997272;28;20637;-68
2022/04/09 04:05:38;;;;;;;5.10;2.10;;;;;;;1.53;76.15;98914.41;4980671;28;20065;-67
2022/04/09 04:08:05;;;;;;;7.82;2.33;;;;;;;1.57;76.42;98926.25;4979166;28;20304;-68
2022/04/09 04:10:31;;;;;;;9.70;2.20;;;;;;;1.60;75.68;98927.75;4996432;28;20042;-67
2022/04/09 04:12:57;;;;;;;5.53;2.00;;;;;;;1.57;76.43;98931.50;4996395;28;20265;-66
2022/04/09 04:15:22;;;;;;;7.50;3.00;;;;;;;1.60;75.71;98935.63;4996308;28;20272;-66
2022/04/09 04:17:49;;;;;;;5.63;2.90;;;;;;;1.66;75.58;98942.88;4996153;28;20486;-67
2022/04/09 04:20:15;;;;;;;6.10;2.90;;;;;;;1.83;75.34;98934.19;4997629;28;20042;-67
2022/04/09 04:22:41;;;;;;;7.93;2.70;;;;;;;2.11;74.29;98938.34;4996388;28;20272;-66
2022/04/09 04:25:06;;;;;;;3.90;2.70;;;;;;;2.25;73.58;98947.47;4996143;28;20489;-66
2022/04/09 04:27:32;;;;;;;6.67;3.17;;;;;;;2.37;73.07;98945.44;4996036;28;20042;-67
2022/04/09 04:30:03;;;;;;;4.20;2.77;;;;;;;2.46;72.78;98940.06;4996060;28;20149;-68
2022/04/09 04:32:29;;;;;;;8.97;3.10;;;;;;;2.48;72.01;98938.09;4995875;28;20548;-66
2022/04/09 04:34:55;;;;;;;5.67;2.43;;;;;;;2.43;72.15;98945.63;4997187;28;20269;-67
2022/04/09 04:37:21;;;;;;;6.07;2.77;;;;;;;2.29;72.71;98955.84;4996486;28;20038;-68
2022/04/09 04:39:47;;;;;;;4.57;2.20;;;;;;;2.14;72.80;98947.72;4996125;28;20085;-68
2022/04/09 04:42:13;;;;;;;5.20;2.50;;;;;;;2.10;72.94;98960.34;4996151;28;20304;-68
2022/04/09 04:44:41;;;;;;;4.97;2.03;;;;;;;2.01;73.62;98955.97;4996067;28;20648;-69
2022/04/09 04:47:06;;;;;;;5.27;2.73;;;;;;;2.05;73.18;98961.78;4978617;28;20646;-67
2022/04/09 04:49:32;;;;;;;3.73;1.87;;;;;;;2.00;73.54;98945.63;5002553;28;20276;-67
2022/04/09 04:51:57;;;;;;;5.90;2.20;;;;;;;2.09;73.42;98963.94;4996538;28;20045;-67
2022/04/09 04:54:23;;;;;;;4.97;2.20;;;;;;;1.99;73.13;98942.19;4995812;28;20038;-68
2022/04/09 04:56:48;;;;;;;4.73;2.17;;;;;;;2.10;73.03;98957.72;4995431;28;20443;-67
2022/04/09 04:59:15;;;;;;;7.53;2.00;;;;;;;2.23;72.10;98970.44;4995590;28;20042;-70
2022/04/09 05:01:41;;;;;;;5.80;2.47;;;;;;;2.29;72.04;98956.69;4995216;28;20425;-66
2022/04/09 05:04:07;;;;;;;3.70;1.93;;;;;;;2.04;71.68;98913.69;4991581;28;20268;-69
2022/04/09 05:06:32;;;;;;;5.90;2.47;;;;;;;2.46;71.43;98966.34;4983826;28;20097;-65
2022/04/09 05:08:58;;;;;;;7.60;2.77;;;;;;;2.55;70.95;98975.06;4983461;28;20278;-65
2022/04/09 05:11:24;;;;;;;9.03;2.30;;;;;;;2.65;70.49;98985.50;4983178;28;20046;-65
2022/04/09 05:13:50;;;;;;;8.00;2.80;;;;;;;2.67;69.85;98968.59;4986597;28;20049;-72
2022/04/09 05:16:16;;;;;;;4.83;2.20;;;;;;;2.74;70.65;98976.69;4986315;28;20065;-75
2022/04/09 05:18:41;;;;;;;12.30;3.70;;;;;;;2.74;69.81;98980.13;4981624;28;20459;-72
2022/04/09 05:21:07;;;;;;;5.00;2.33;;;;;;;2.79;69.37;98983.09;4987366;28;20513;-66
2022/04/09 05:23:32;;;;;;;6.30;2.20;;;;;;;2.86;69.52;98983.31;4985913;28;20034;-64
2022/04/09 05:25:58;;;;;;;6.67;2.30;;;;;;;2.72;68.94;98963.69;4982494;28;20601;-63
2022/04/09 05:28:24;;;;;;;5.80;1.83;;;;;;;2.95;68.32;98992.06;4986564;28;20038;-63
2022/04/09 05:30:52;;;;;;;6.50;2.50;;;;;;;2.92;68.97;99003.72;4981198;28;20125;-69
2022/04/09 05:33:19;;;;;;;11.20;2.08;;;;;;;2.94;68.88;98998.31;4984137;28;20037;-65
2022/04/09 05:35:44;;;;;;;6.90;2.10;;;;;;;2.92;69.08;99005.53;4989541;28;20069;-68
2022/04/09 05:38:10;;;;;;;9.57;2.93;;;;;;;3.01;68.76;99012.47;4983894;28;20262;-63
2022/04/09 05:40:37;;;;;;;6.50;2.43;;;;;;;3.08;68.93;99019.56;4968173;28;20089;-62
2022/04/09 05:43:03;;;;;;;8.60;2.63;;;;;;;3.08;68.65;99024.00;4984991;28;20084;-61
2022/04/09 05:45:30;;;;;;;5.13;2.07;;;;;;;3.16;68.20;99026.66;4970649;28;20312;-65
2022/04/09 05:47:56;;;;;;;7.00;2.73;;;;;;;3.17;68.19;99017.78;4982529;28;20277;-68
2022/04/09 05:50:21;;;;;;;5.67;2.00;;;;;;;3.17;68.30;99035.38;4981754;28;20282;-69
2022/04/09 05:52:49;;;;;;;4.53;3.20;;;;;;;3.05;68.27;99033.03;4967987;28;20038;-71
2022/04/09 05:55:17;;;;;;;7.40;2.47;;;;;;;3.13;68.97;99031.44;4982885;28;20164;-68
2022/04/09 05:57:43;;;;;;;7.73;2.47;;;;;;;3.18;68.40;99037.03;4967829;28;20278;-73
2022/04/09 06:00:10;;;;;;;7.20;2.20;;;;;;;3.23;67.53;99053.19;4985585;28;20269;-68
2022/04/09 06:02:39;;;;;;;8.43;2.50;;;;;;;3.18;67.18;99051.03;4952837;28;20761;-68
2022/04/09 06:05:08;;;;;;;7.67;2.60;;;;;;;3.13;66.43;99053.28;4960988;28;20261;-65
2022/04/09 06:07:35;;;;;;;12.60;2.97;;;;;;;3.23;66.37;99061.91;4993828;28;20305;-64
2022/04/09 06:10:03;;;;;;;7.47;2.50;;;;;;;3.23;66.98;99058.47;4993334;28;20316;-64
2022/04/09 06:12:29;;;;;;;10.68;2.88;;;;;;;3.30;66.71;99057.66;4993962;28;20272;-63
2022/04/09 06:14:55;;;;;;;6.17;2.33;;;;;;;3.23;66.28;99046.13;4993758;28;20035;-62
2022/04/09 06:17:24;;;;;;;6.77;1.93;;;;;;;3.50;65.83;99071.41;4993957;28;20280;-66
2022/04/09 06:19:50;;;;;;;7.90;2.70;;;;;;;3.70;64.63;99061.41;4994208;28;20030;-64
2022/04/09 06:22:16;;;;;;;5.07;2.83;;;;;;;4.02;64.62;99085.19;4994324;28;20272;-69
2022/04/09 06:24:41;;;;;;;4.30;1.90;;;;;;;4.06;63.34;99088.38;4993309;28;20034;-68
2022/04/09 06:27:07;;;;;;;5.97;2.10;;;;;;;4.03;63.22;99081.59;4976221;28;20301;-73
2022/04/09 06:29:33;;;;;;;6.13;2.27;;;;;;;4.07;63.60;99089.19;4993461;28;20069;-69
2022/04/09 06:31:58;;;;;;;9.57;2.50;;;;;;;4.14;64.07;99092.81;4993341;28;20054;-70
2022/04/09 06:34:24;;;;;;;9.30;3.33;;;;;;;4.33;63.62;99101.22;4994002;28;20037;-67
2022/04/09 06:36:49;;;;;;;6.10;2.40;;;;;;;4.52;63.46;99108.00;4994317;28;20034;-69
2022/04/09 06:39:16;;;;;;;9.90;2.10;;;;;;;4.53;62.63;99093.84;4993768;28;20117;-68
2022/04/09 06:41:44;;;;;;;9.47;3.07;;;;;;;4.51;62.50;99102.91;4993363;28;20053;-68
2022/04/09 06:44:11;;;;;;;9.40;2.70;;;;;;;4.59;62.11;99106.34;4975586;28;20294;-75
2022/04/09 06:46:37;;;;;;;6.33;2.10;;;;;;;4.63;61.95;99110.34;4999536;28;20305;-66
2022/04/09 06:49:02;;;;;;;8.53;2.63;;;;;;;4.74;62.36;99109.16;4993881;28;20336;-66
2022/04/09 06:51:28;;;;;;;6.67;3.03;;;;;;;4.95;62.00;99112.13;4994961;28;20437;-69
2022/04/09 06:53:54;;;;;;;6.33;2.60;;;;;;;5.11;61.31;99116.53;4994667;28;20035;-71
2022/04/09 06:56:20;;;;;;;5.53;2.23;;;;;;;5.09;60.23;99123.81;4976200;28;20161;-70
2022/04/09 06:58:45;;;;;;;9.23;2.60;;;;;;;5.19;60.26;99135.00;4993090;28;20034;-68
2022/04/09 07:01:11;;;;;;;12.57;2.23;;;;;;;5.16;60.71;99130.03;4993310;28;20081;-69
2022/04/09 07:03:36;;;;;;;6.20;2.17;;;;;;;5.20;60.41;99136.66;4993581;28;20030;-70
2022/04/09 07:06:02;;;;;;;12.53;2.30;;;;;;;5.19;59.77;99144.72;4993779;28;20508;-69
2022/04/09 07:08:28;;;;;;;8.80;2.67;;;;;;;5.04;60.64;99149.88;4993314;28;20176;-69
2022/04/09 07:10:54;;;;;;;7.20;2.63;;;;;;;5.11;60.31;99153.47;4993382;28;20038;-73
2022/04/09 07:13:20;;;;;;;7.13;2.43;;;;;;;5.13;59.92;99159.41;4993243;28;20042;-72
2022/04/09 07:15:45;;;;;;;7.57;2.77;;;;;;;4.97;60.57;99162.09;4993019;28;20077;-70
2022/04/09 07:18:11;;;;;;;8.50;2.20;;;;;;;5.02;60.14;99175.59;4993070;28;20321;-68
2022/04/09 07:20:40;;;;;;;6.27;2.17;;;;;;;5.03;60.05;99177.25;4993255;28;20062;-66
2022/04/09 07:23:05;;;;;;;3.50;2.03;;;;;;;4.91;59.46;99173.28;4993101;28;20320;-67
2022/04/09 07:25:31;;;;;;;8.03;2.43;;;;;;;4.92;60.17;99178.41;4992753;28;20257;-64
2022/04/09 07:27:57;;;;;;;8.13;2.47;;;;;;;5.03;60.09;99179.06;4992744;28;20121;-65
2022/04/09 07:30:24;;;;;;;17.97;3.13;;;;;;;4.91;58.83;99183.81;4975801;28;20070;-70
2022/04/09 07:32:50;;;;;;;12.90;2.47;;;;;;;4.96;58.93;99177.09;4975139;28;20383;-71
2022/04/09 07:35:15;;;;;;;6.60;2.20;;;;;;;4.97;59.64;99172.63;4993305;28;20280;-68
2022/04/09 07:38:00;;;;;;;7.33;2.30;;;;;;;5.06;58.49;99186.63;4994842;28;20038;-71
2022/04/09 07:40:27;;;;;;;9.90;2.03;;;;;;;5.02;58.48;99183.50;4960846;28;20116;-69
2022/04/09 07:42:57;;;;;;;8.63;2.28;;;;;;;5.03;57.43;99206.25;4999486;28;20281;-74
2022/04/09 07:45:24;;;;;;;5.80;2.20;;;;;;;4.86;57.98;99183.50;4968643;28;20061;-68
2022/04/09 07:47:55;;;;;;;7.47;2.20;;;;;;;4.72;57.16;99205.25;4999452;28;20050;-72
2022/04/09 07:50:21;;;;;;;9.80;2.80;;;;;;;4.60;57.07;99224.00;4975908;28;20859;-72
2022/04/09 07:52:53;;;;;;;3.17;1.80;;;;;;;4.59;56.35;99219.72;4997366;28;20267;-73
2022/04/09 07:55:21;;;;;;;5.93;2.43;;;;;;;4.66;55.23;99223.38;4993173;28;20360;-71
2022/04/09 07:57:50;;;;;;;4.10;1.67;;;;;;;4.84;54.76;99219.75;4976112;28;20316;-70
2022/04/09 08:00:17;;;;;;;4.82;2.22;;;;;;;4.85;54.73;99231.97;4992756;28;20772;-72
2022/04/09 08:02:43;;;;;;;8.20;2.37;;;;;;;4.92;55.18;99235.63;4993834;28;20498;-74
2022/04/09 08:05:10;;;;;;;6.17;1.90;;;;;;;4.82;54.99;99214.66;4975126;28;20285;-72
2022/04/09 08:07:38;;;;;;;10.67;4.33;;;;;;;5.13;54.97;99233.31;4993843;28;20358;-71
2022/04/09 08:10:04;;;;;;;8.10;2.47;;;;;;;5.21;54.23;99222.75;4992222;28;20827;-72
2022/04/09 08:12:29;;;;;;;6.80;1.90;;;;;;;5.38;53.88;99246.50;4974810;28;20274;-72
2022/04/09 08:14:55;;;;;;;5.90;3.13;;;;;;;5.17;53.63;99221.41;4992380;28;20404;-69
2022/04/09 08:17:23;;;;;;;9.50;3.00;;;;;;;5.12;54.85;99239.56;4975253;28;20406;-75
2022/04/09 08:19:49;;;;;;;7.57;2.47;;;;;;;5.36;52.92;99266.97;4975134;28;20047;-71
2022/04/09 08:22:16;;;;;;;3.23;1.67;;;;;;;5.33;53.67;99257.56;4993910;28;20042;-69
2022/04/09 08:24:42;;;;;;;8.33;1.97;;;;;;;5.56;52.85;99250.63;4992145;28;20034;-70
2022/04/09 08:27:11;;;;;;;3.23;1.83;;;;;;;5.59;53.25;99257.38;4992161;28;20303;-73
2022/04/09 08:29:37;;;;;;;6.70;1.93;;;;;;;5.83;52.24;99259.97;4992119;28;20034;-69
2022/04/09 08:32:04;;;;;;;5.17;1.60;;;;;;;6.15;52.13;99272.31;4992860;28;20272;-75
2022/04/09 08:34:35;;;;;;;7.13;1.73;;;;;;;6.42;51.27;99288.72;4991616;28;20058;-73
2022/04/09 08:37:02;;;;;;;5.53;2.03;;;;;;;6.26;51.98;99279.03;4961949;28;20685;-73
2022/04/09 08:39:27;;;;;;;7.87;1.80;;;;;;;5.81;51.52;99283.09;4992703;28;20038;-72
2022/04/09 08:41:53;;;;;;;12.70;2.70;;;;;;;5.80;52.58;99276.16;4974446;28;20108;-71
2022/04/09 08:44:22;;;;;;;3.13;1.90;;;;;;;5.76;51.58;99295.97;4974731;28;20113;-73
2022/04/09 08:46:48;;;;;;;6.63;2.00;;;;;;;5.55;51.75;99277.19;4974864;28;20459;-73
2022/04/09 08:49:14;;;;;;;3.07;1.40;;;;;;;5.79;52.16;99306.22;4976621;28;20085;-70
2022/04/09 08:51:40;;;;;;;3.07;1.60;;;;;;;5.85;51.42;99289.69;4978445;28;20431;-66
2022/04/09 08:54:08;;;;;;;4.50;2.27;;;;;;;5.90;50.72;99287.41;4976318;28;20446;-67
2022/04/09 08:56:34;;;;;;;5.93;1.65;;;;;;;6.11;50.79;99305.34;4976085;28;20058;-66
2022/04/09 08:59:01;;;;;;;5.90;1.73;;;;;;;6.25;50.36;99309.09;4976120;28;20125;-69
2022/04/09 09:01:27;;;;;;;6.43;1.57;;;;;;;6.55;49.09;99312.78;4975736;28;20325;-68
2022/04/09 09:03:54;;;;;;;5.47;2.03;;;;;;;6.58;49.02;99322.19;4975929;28;20030;-66
2022/04/09 09:06:28;;;;;;;6.43;1.97;;;;;;;6.78;49.54;99320.78;4977634;28;20109;-70
2022/04/09 09:08:55;;;;;;;7.97;2.70;;;;;;;6.79;48.39;99317.16;4976325;28;20027;-72
2022/04/09 09:11:26;;;;;;;6.80;2.47;;;;;;;6.78;47.72;99326.09;4958362;28;20030;-69
2022/04/09 09:13:55;;;;;;;12.67;2.23;;;;;;;6.95;47.77;99334.78;4975955;28;20043;-64
2022/04/09 09:16:26;;;;;;;9.47;2.33;;;;;;;6.83;47.35;99331.69;4975777;28;20058;-64
2022/04/09 09:18:54;;;;;;;10.13;2.00;;;;;;;6.43;46.96;99357.31;4976136;28;20043;-63
2022/04/09 09:21:25;;;;;;;5.50;2.20;;;;;;;6.25;48.14;99354.06;4976531;28;20038;-71
2022/04/09 09:23:52;;;;;;;5.50;1.77;;;;;;;6.19;48.87;99339.69;4975979;28;20035;-65
2022/04/09 09:26:22;;;;;;;4.80;1.67;;;;;;;6.33;48.94;99356.66;4975120;28;20035;-69
2022/04/09 09:28:55;;;;;;;2.63;1.60;;;;;;;6.30;49.02;99353.53;4980902;28;20038;-67
2022/04/09 09:31:38;;;;;;;7.17;1.80;;;;;;;6.58;48.98;99353.94;4986516;28;20125;-65
2022/04/09 09:34:14;;;;;;;3.73;1.60;;;;;;;6.73;46.98;99341.66;4975738;28;20050;-66
2022/04/09 09:36:42;;;;;;;10.50;2.30;;;;;;;6.60;47.60;99354.59;4979687;28;20054;-66
2022/04/09 09:39:09;;;;;;;5.10;1.90;;;;;;;6.67;47.10;99348.47;4985352;28;20096;-63
2022/04/09 09:41:45;;;;;;;7.77;2.50;;;;;;;6.56;47.71;99351.47;4987449;28;20133;-62
2022/04/09 09:44:11;;;;;;;4.47;1.97;;;;;;;6.56;47.39;99334.78;4985482;28;20069;-69
2022/04/09 09:46:38;;;;;;;3.07;1.73;;;;;;;6.88;46.06;99371.66;4988323;28;20054;-73
2022/04/09 09:49:04;;;;;;;10.67;1.97;;;;;;;6.80;45.99;99374.38;4975667;28;20146;-68
2022/04/09 09:51:30;;;;;;;10.63;1.60;;;;;;;6.65;45.45;99370.78;4958394;28;20573;-70
2022/04/09 09:54:07;;;;;;;4.87;1.77;;;;;;;6.56;46.30;99372.63;4959605;28;20039;-71
2022/04/09 09:56:41;;;;;;;5.53;2.23;;;;;;;6.51;46.97;99383.72;4941980;28;20090;-63
2022/04/09 09:59:11;;;;;;;2.73;1.50;;;;;;;6.49;45.30;99385.72;4974041;28;20073;-68
2022/04/09 10:01:47;;;;;;;4.30;1.80;;;;;;;6.52;46.26;99377.44;4974936;28;20135;-64
2022/04/09 10:04:13;;;;;;;3.83;1.90;;;;;;;6.68;45.70;99375.75;4974584;28;20035;-65
2022/04/09 10:06:42;;;;;;;4.10;2.47;;;;;;;6.81;45.94;99392.72;4981771;28;20143;-65
2022/04/09 10:09:08;;;;;;;12.38;3.53;;;;;;;6.96;45.26;99382.25;4987843;28;20117;-64
2022/04/09 10:11:36;;;;;;;7.27;2.03;;;;;;;7.06;44.84;99385.50;4982708;28;20089;-64
2022/04/09 10:14:03;;;;;;;10.50;2.00;;;;;;;7.20;43.82;99405.09;4983779;28;20042;-65
2022/04/09 10:16:33;;;;;;;5.40;2.40;;;;;;;7.19;43.74;99384.91;4989623;28;20039;-66
2022/04/09 10:19:01;;;;;;;10.57;1.63;;;;;;;7.01;42.85;99387.00;4986570;28;20065;-68
2022/04/09 10:21:29;;;;;;;3.37;1.60;;;;;;;6.90;43.71;99414.66;4984320;28;20026;-63
2022/04/09 10:23:57;;;;;;;6.32;1.60;;;;;;;6.82;43.65;99409.41;4984480;28;20034;-67
2022/04/09 10:26:25;;;;;;;4.07;1.93;;;;;;;6.95;43.44;99412.34;4989776;28;20043;-64
2022/04/09 10:28:51;;;;;;;3.43;1.40;;;;;;;6.88;43.14;99423.78;4971838;28;20039;-63
2022/04/09 10:31:23;;;;;;;3.50;1.97;;;;;;;6.98;42.63;99435.84;4989982;28;20055;-69
2022/04/09 10:34:04;;;;;;;5.87;2.53;;;;;;;7.19;43.19;99426.44;4986836;28;20273;-66
2022/04/09 10:36:44;;;;;;;5.20;1.67;;;;;;;7.08;43.50;99425.03;4985746;28;20084;-66
2022/04/09 10:39:40;;;;;;;12.37;2.40;;;;;;;6.99;44.34;99410.19;4986553;28;20498;-67
2022/04/09 10:42:07;;;;;;;7.57;2.27;;;;;;;7.06;43.33;99427.84;4982735;28;20100;-67
2022/04/09 10:44:51;;;;;;;10.17;2.10;;;;;;;7.22;43.42;99431.41;4963066;28;20062;-66
2022/04/09 10:47:21;;;;;;;9.60;1.70;;;;;;;7.21;43.96;99430.56;4985504;28;20042;-68
2022/04/09 10:50:02;;;;;;;7.73;1.90;;;;;;;7.02;44.43;99437.13;4984554;28;20034;-66
2022/04/09 10:52:32;;;;;;;4.53;1.80;;;;;;;7.01;44.47;99413.47;4975006;28;20057;-67
2022/04/09 10:55:10;;;;;;;6.03;1.77;;;;;;;7.49;43.83;99432.75;4982761;28;20120;-65
2022/04/09 10:57:46;;;;;;;11.75;1.88;;;;;;;7.69;44.81;99429.47;4982172;28;20146;-66
2022/04/09 11:00:21;;;;;;;10.17;2.20;;;;;;;7.67;42.64;99431.47;4972066;28;20105;-67
2022/04/09 11:03:06;;;;;;;8.20;1.90;;;;;;;7.43;44.27;99424.50;4984546;28;20034;-68
2022/04/09 11:05:33;;;;;;;7.47;2.10;;;;;;;7.29;44.60;99427.09;4970529;28;20030;-70
2022/04/09 11:08:14;;;;;;;8.87;1.97;;;;;;;7.14;42.82;99435.75;4977089;28;20048;-64
2022/04/09 11:10:42;;;;;;;6.63;1.63;;;;;;;7.15;44.68;99440.03;4968587;28;20497;-68
2022/04/09 11:13:12;;;;;;;6.27;2.83;;;;;;;7.41;43.64;99437.09;4984556;28;20056;-66
2022/04/09 11:15:45;;;;;;;4.70;2.20;;;;;;;7.61;43.03;99431.34;4986894;28;20304;-67
2022/04/09 11:18:11;;;;;;;7.10;1.57;;;;;;;7.63;41.72;99440.78;4985097;28;20121;-68
2022/04/09 11:20:37;;;;;;;6.57;2.13;;;;;;;7.34;43.48;99441.44;4984934;28;20441;-68
2022/04/09 11:23:15;;;;;;;6.90;2.27;;;;;;;7.19;43.40;99445.00;4965551;28;20494;-64
2022/04/09 11:25:44;;;;;;;6.37;2.77;;;;;;;7.11;43.33;99420.22;4983653;28;20030;-65
2022/04/09 11:28:16;;;;;;;11.30;1.77;;;;;;;7.35;43.26;99439.63;4988061;28;20066;-65
2022/04/09 11:30:53;;;;;;;9.47;1.93;;;;;;;7.39;42.21;99432.97;4978851;28;20073;-66
2022/04/09 11:33:20;;;;;;;2.77;1.80;;;;;;;7.40;42.23;99429.31;4978860;28;20039;-66
2022/04/09 11:35:46;;;;;;;5.60;2.00;;;;;;;7.45;42.82;99425.16;4982675;28;20087;-66
2022/04/09 11:38:12;;;;;;;12.80;1.93;;;;;;;7.61;41.56;99432.19;4976083;28;20038;-64
2022/04/09 11:41:24;;;;;;;31.80;5.60;;;;;;;7.59;42.39;99428.88;4992809;28;20085;-66
2022/04/09 11:43:51;;;;;;;6.53;3.37;;;;;;;7.42;42.30;99427.31;4986310;28;20053;-66